»·PEaware :: N272SP KOLS-KPHX

N272SP :: KOLS-KPHX

FLIGHT INFORMATION

Flight Status: Arrived
Operator: Privately registered:
United States
More flights under this callsign
Pilot: Anonymous 38068 (38068)
Aircraft: CESSNA 172 SKYHAWK
(C172)
More flights by this aircraft type
Origin: KOLS Nogales Intl
United States
Destination: KPHX Phoenix Sky Harbor Intl
United States
More flights between these airports :: More routes between these airports
Route:
File this flight plan on PilotEdge
Remarks: ALPHCHALL15
Altitude:
(Current/Filed)
8,500ft
Speed:
(Current/Filed)
120kts
Departed: 23-Nov-22 07:51 PM
Arrived: 23-Nov-22 10:23 PM
Distance/Time
Traveled:
135nm/2:32
Distance/Time
To Go:
Arrived

Flight Plot

Page will automatically refresh every two minutes.

Flight plan parsing failed; only flown route is shown


Map Options




Map Legend


Flown Route
Filed Route
Departure Airport
Arrival Airport
Navaid (VOR, NDB)
Fix

Horizontal Profiles

Position Reports

Time Latitude Longitude Heading Altitude Ground
Speed
23-Nov-22 19:29 31.418152 -110.850008 47 3888ft 0kts
23-Nov-22 19:30 31.418152 -110.850008 47 3888ft 0kts
23-Nov-22 19:31 31.418152 -110.850008 47 3888ft 0kts
23-Nov-22 19:32 31.418152 -110.850008 47 3888ft 0kts
23-Nov-22 19:33 31.418152 -110.850008 47 3888ft 0kts
23-Nov-22 19:34 31.418152 -110.850008 47 3888ft 0kts
23-Nov-22 19:35 31.418152 -110.850008 47 3888ft 0kts
23-Nov-22 19:36 31.418152 -110.850008 47 3888ft 0kts
23-Nov-22 19:37 31.418152 -110.850008 47 3888ft 0kts
23-Nov-22 19:38 31.418152 -110.850008 47 3888ft 0kts
23-Nov-22 19:39 31.418189 -110.849961 46 3888ft 1kts
23-Nov-22 19:40 31.419187 -110.847885 47 3898ft 11kts
23-Nov-22 19:41 31.421422 -110.845176 47 3913ft 7kts
23-Nov-22 19:42 31.423116 -110.843077 45 3925ft 15kts
23-Nov-22 19:43 31.425108 -110.840585 77 3941ft 3kts
23-Nov-22 19:44 31.425025 -110.840187 128 3943ft 0kts
23-Nov-22 19:45 31.425025 -110.840187 128 3943ft 0kts
23-Nov-22 19:48 31.425025 -110.840187 128 3943ft 0kts
23-Nov-22 19:49 31.423532 -110.840782 227 3937ft 6kts
23-Nov-22 19:50 31.416517 -110.848835 217 4069ft 62kts
23-Nov-22 19:51 31.400942 -110.861616 219 4657ft 75kts
23-Nov-22 19:52 31.386853 -110.877121 204 5336ft 68kts
23-Nov-22 19:53 31.397195 -110.890280 318 5911ft 67kts
23-Nov-22 19:54 31.412931 -110.901425 354 6478ft 66kts
23-Nov-22 19:55 31.430393 -110.900033 22 6902ft 77kts
23-Nov-22 19:56 31.450586 -110.905695 345 7460ft 73kts
23-Nov-22 19:57 31.471908 -110.907896 341 7709ft 102kts
23-Nov-22 19:58 31.502365 -110.918669 341 7699ft 118kts
23-Nov-22 19:59 31.534166 -110.930053 341 7699ft 119kts
23-Nov-22 20:00 31.566054 -110.941504 341 7699ft 119kts
23-Nov-22 20:01 31.596660 -110.952473 341 7971ft 103kts
23-Nov-22 20:02 31.621632 -110.962070 334 8487ft 93kts
23-Nov-22 20:03 31.649032 -110.976301 334 8502ft 114kts
23-Nov-22 20:04 31.678437 -110.991773 334 8501ft 116kts
23-Nov-22 20:05 31.707877 -111.007305 334 8501ft 116kts
23-Nov-22 20:06 31.737442 -111.022936 334 8501ft 116kts
23-Nov-22 20:07 31.766974 -111.038582 334 8501ft 116kts
23-Nov-22 20:08 31.796563 -111.054290 334 8501ft 116kts
23-Nov-22 20:09 31.826035 -111.069967 334 8501ft 116kts
23-Nov-22 20:10 31.855108 -111.086642 327 8502ft 116kts
23-Nov-22 20:11 31.882727 -111.106499 327 8501ft 116kts
23-Nov-22 20:12 31.910283 -111.126362 327 8501ft 116kts
23-Nov-22 20:13 31.938087 -111.145947 331 8500ft 116kts
23-Nov-22 20:14 31.967262 -111.162477 333 8501ft 116kts
23-Nov-22 20:15 31.996521 -111.178966 333 8501ft 116kts
23-Nov-22 20:16 32.025672 -111.195426 333 8501ft 116kts
23-Nov-22 20:17 32.054856 -111.211937 333 8501ft 116kts
23-Nov-22 20:18 32.084080 -111.228504 333 8501ft 116kts
23-Nov-22 20:19 32.113831 -111.245462 333 8143ft 120kts
23-Nov-22 20:20 32.143748 -111.262622 333 7643ft 120kts
23-Nov-22 20:21 32.173737 -111.279862 333 7142ft 120kts
23-Nov-22 20:22 32.203732 -111.297143 333 6641ft 120kts
23-Nov-22 20:23 32.231889 -111.313363 332 6486ft 102kts
23-Nov-22 20:24 32.260058 -111.329524 333 6489ft 116kts
23-Nov-22 20:25 32.289319 -111.346391 332 6489ft 117kts
23-Nov-22 20:26 32.318585 -111.363290 332 6489ft 117kts
23-Nov-22 20:27 32.347929 -111.380263 332 6489ft 117kts
23-Nov-22 20:28 32.377236 -111.397248 332 6489ft 117kts
23-Nov-22 20:29 32.406555 -111.414273 332 6489ft 117kts
23-Nov-22 20:30 32.435846 -111.431316 332 6489ft 117kts
23-Nov-22 20:31 32.465079 -111.448357 332 6489ft 117kts
23-Nov-22 20:32 32.494384 -111.465473 332 6489ft 117kts
23-Nov-22 20:33 32.523593 -111.482566 332 6489ft 117kts
23-Nov-22 20:34 32.552931 -111.499768 332 6489ft 117kts
23-Nov-22 20:35 32.580854 -111.518829 298 6496ft 116kts
23-Nov-22 20:36 32.595949 -111.553190 296 6489ft 117kts
23-Nov-22 20:37 32.613275 -111.585935 302 6489ft 117kts
23-Nov-22 20:38 32.631287 -111.618325 302 6489ft 117kts
23-Nov-22 20:39 32.650033 -111.649967 304 6489ft 117kts
23-Nov-22 20:40 32.668987 -111.681674 303 6489ft 117kts
23-Nov-22 20:41 32.687890 -111.713342 303 6489ft 117kts
23-Nov-22 20:42 32.706606 -111.744742 303 6489ft 117kts
23-Nov-22 20:43 32.725438 -111.776382 303 6489ft 117kts
23-Nov-22 20:44 32.744323 -111.808157 303 6489ft 117kts
23-Nov-22 20:45 32.763100 -111.839796 303 6489ft 117kts
23-Nov-22 20:46 32.781924 -111.871560 303 6489ft 117kts
23-Nov-22 20:47 32.800733 -111.903345 303 6489ft 117kts
23-Nov-22 20:48 32.819478 -111.935069 303 6489ft 117kts
23-Nov-22 20:49 32.838280 -111.966934 303 6489ft 117kts
23-Nov-22 20:50 32.856660 -111.998108 303 6488ft 113kts
23-Nov-22 20:51 32.874631 -112.028602 303 6489ft 112kts
23-Nov-22 20:52 32.892456 -112.058885 303 6489ft 112kts
23-Nov-22 20:53 32.910343 -112.089314 303 6489ft 112kts
23-Nov-22 20:54 32.928183 -112.119709 303 6489ft 112kts
23-Nov-22 20:55 32.945812 -112.150331 296 6491ft 112kts
23-Nov-22 20:56 32.960391 -112.183092 297 6489ft 112kts
23-Nov-22 20:57 32.975375 -112.215536 297 6489ft 112kts
23-Nov-22 20:58 32.990412 -112.248143 297 6489ft 112kts
23-Nov-22 20:59 33.005377 -112.280644 297 6489ft 112kts
23-Nov-22 21:00 33.020334 -112.313180 297 6489ft 112kts
23-Nov-22 21:01 33.035323 -112.345687 299 6488ft 112kts
23-Nov-22 21:02 33.051225 -112.377717 299 6489ft 112kts
23-Nov-22 21:03 33.069740 -112.407397 309 6489ft 112kts
23-Nov-22 21:04 33.090054 -112.435633 309 6489ft 112kts
23-Nov-22 21:05 33.110316 -112.463835 309 6488ft 110kts
23-Nov-22 21:07 33.129887 -112.491100 309 6489ft 107kts
23-Nov-22 21:08 33.143495 -112.522473 298 6488ft 106kts
23-Nov-22 21:09 33.158473 -112.552904 299 6489ft 106kts
23-Nov-22 21:10 33.173500 -112.583390 299 6489ft 106kts
23-Nov-22 21:11 33.189041 -112.615064 299 6244ft 113kts
23-Nov-22 21:12 33.205173 -112.648155 299 5755ft 119kts
23-Nov-22 21:13 33.221312 -112.681374 299 5247ft 111kts
23-Nov-22 21:14 33.236222 -112.713295 297 4743ft 109kts
23-Nov-22 21:15 33.252186 -112.743189 303 4492ft 104kts
23-Nov-22 21:16 33.269483 -112.772484 303 4494ft 118kts
23-Nov-22 21:17 33.289016 -112.805784 303 4492ft 124kts
23-Nov-22 21:18 33.308819 -112.839633 303 4491ft 124kts
23-Nov-22 21:19 33.327489 -112.871501 303 4491ft 110kts
23-Nov-22 21:20 33.344004 -112.899630 303 4491ft 97kts
23-Nov-22 21:21 33.359286 -112.925604 303 4491ft 93kts
23-Nov-22 21:22 33.375006 -112.952358 303 4493ft 103kts
23-Nov-22 21:23 33.391828 -112.981108 303 4492ft 106kts
23-Nov-22 21:24 33.408773 -113.010130 303 4492ft 106kts
23-Nov-22 21:25 33.425748 -113.039252 303 4492ft 106kts
23-Nov-22 21:26 33.441801 -113.068923 276 4496ft 106kts
23-Nov-22 21:27 33.451566 -113.095820 4 4480ft 100kts
23-Nov-22 21:28 33.461890 -113.069071 85 4491ft 95kts
23-Nov-22 21:29 33.463342 -113.032572 86 4014ft 122kts
23-Nov-22 21:30 33.464603 -112.991582 92 3549ft 119kts
23-Nov-22 21:31 33.462960 -112.955104 92 3491ft 93kts
23-Nov-22 21:32 33.461714 -112.929836 91 3485ft 58kts
23-Nov-22 21:32 33.464680 -112.911509 89 3564ft 75kts
23-Nov-22 21:33 33.463267 -112.880412 91 3500ft 98kts
23-Nov-22 21:35 33.462887 -112.871912 91 3500ft 94kts
23-Nov-22 21:37 33.475218 -112.827848 198 3870ft 67kts
23-Nov-22 21:38 33.447897 -112.835797 190 3770ft 120kts
23-Nov-22 21:39 33.444214 -112.869703 274 3306ft 114kts
23-Nov-22 21:41 33.445573 -112.911794 270 3877ft 108kts
23-Nov-22 21:42 33.446615 -112.947816 270 4366ft 108kts
23-Nov-22 21:42 33.447479 -112.977613 270 4773ft 107kts
23-Nov-22 21:43 33.448511 -113.013065 270 5262ft 106kts
23-Nov-22 21:44 33.449530 -113.048334 269 5675ft 112kts
23-Nov-22 21:45 33.450490 -113.088048 271 5175ft 115kts
23-Nov-22 21:46 33.461667 -113.118598 349 4652ft 112kts
23-Nov-22 21:47 33.473784 -113.089288 91 4123ft 119kts
23-Nov-22 21:48 33.472535 -113.050802 91 3616ft 111kts
23-Nov-22 21:49 33.471380 -113.014053 91 3115ft 110kts
23-Nov-22 21:50 33.470259 -112.977430 91 2615ft 109kts
23-Nov-22 21:51 33.465409 -112.945822 98 2379ft 75kts
23-Nov-22 21:52 33.465207 -112.944528 98 2406ft 72kts
23-Nov-22 21:58 33.460396 -112.791945 85 3200ft 113kts
23-Nov-22 21:59 33.460661 -112.755863 95 3201ft 106kts
23-Nov-22 22:00 33.456931 -112.720826 95 3202ft 105kts
23-Nov-22 22:01 33.453224 -112.685901 95 3201ft 105kts
23-Nov-22 22:02 33.449579 -112.651064 95 3201ft 105kts
23-Nov-22 22:03 33.445935 -112.616188 95 3202ft 105kts
23-Nov-22 22:04 33.436925 -112.578321 102 2542ft 116kts
23-Nov-22 22:05 33.434140 -112.546387 86 2496ft 95kts
23-Nov-22 22:06 33.436874 -112.510615 81 2569ft 127kts
23-Nov-22 22:07 33.436491 -112.470970 88 2568ft 98kts
23-Nov-22 22:08 33.435930 -112.435379 93 2545ft 115kts
23-Nov-22 22:09 33.429647 -112.401034 94 2654ft 101kts
23-Nov-22 22:10 33.427218 -112.365161 80 2478ft 117kts
23-Nov-22 22:11 33.432007 -112.331524 76 2837ft 100kts
23-Nov-22 22:12 33.432274 -112.313602 107 2780ft 120kts
23-Nov-22 22:18 33.430150 -112.113862 100 2221ft 85kts
23-Nov-22 22:19 33.431928 -112.084984 91 2140ft 86kts
23-Nov-22 22:20 33.431220 -112.057724 93 1805ft 77kts
23-Nov-22 22:21 33.431192 -112.035762 90 1283ft 54kts
23-Nov-22 22:22 33.431087 -112.021168 88 1113ft 19kts
23-Nov-22 22:23 33.431152 -112.016049 65 1116ft 10kts
23-Nov-22 22:24 33.432537 -112.015336 348 1119ft 7kts
23-Nov-22 22:25 33.432996 -112.020797 305 1113ft 13kts
23-Nov-22 22:26 33.434597 -112.020745 187 1114ft 0kts
23-Nov-22 22:27 33.434597 -112.020745 187 1114ft 0kts
23-Nov-22 22:28 33.434597 -112.020745 187 1114ft 0kts
23-Nov-22 22:29 33.434597 -112.020745 187 1114ft 0kts
23-Nov-22 22:30 33.434597 -112.020745 187 1114ft 0kts
23-Nov-22 22:31 33.434597 -112.020745 187 1114ft 0kts

Navigation Log

Ident Type
Flight plan parsing failed, navigation log unavailable